Flight Track Log - Related Links

Times and Time Zones

All times are in EST time to prevent confusion due to time zone crossing. See the DAL6196 flight status page for this flight to view local times or setup timezone preferences in your user account.

Time Position Orientation Groundspeed Altitude Reporting Facility
EST Latitude Longitude Course Direction KTS MPH feet Rate Location/Type
Fri 11:53:36 AM 40.7667 -73.8500 143° Southeast 157 181 800  Level New York TRACON
Fri 11:54:30 AM 40.7333 -73.8167 143° Southeast 190 219 2,400 2,263 Climbing New York TRACON
Fri 11:55:30 AM 40.7667 -73.7500 57° Northeast 257 296 5,100 1,800 Climbing New York TRACON
Fri 11:56:30 AM 40.8333 -73.6833 37° Northeast 297 342 6,000 1,381 Climbing New York TRACON
Fri 11:57:36 AM 40.8833 -73.7500 315° West 254 292 8,000 2,381 Climbing New York TRACON
Fri 11:58:36 AM 40.9333 -73.8167 315° West 256 295 11,000 2,263 Climbing New York TRACON
Fri 11:59:30 AM 40.9333 -73.9167 270° West 264 304 12,300 1,895 Climbing New York TRACON
Fri 12:00:30 PM 40.9000 -74.0000 242° Southwest 286 329 14,600 1,350 Climbing New York TRACON
Fri 12:01:30 PM 40.8500 -74.1000 237° Southwest 326 375 15,000 379 Climbing New York TRACON
Fri 12:03:40 PM 40.7111 -74.2917 226° Southwest 353 406 15,800 632 Climbing New York Center
Fri 12:04:40 PM 40.6364 -74.3536 212° Southwest 365 420 17,000 1,150 Climbing New York Center
Fri 12:05:40 PM 40.5867 -74.4819 243° Southwest 353 406 18,100 1,300 Climbing New York Center
Fri 12:06:40 PM 40.5311 -74.5911 236° Southwest 359 413 19,600 1,488 Climbing New York Center
Fri 12:07:41 PM 40.4669 -74.6994 232° Southwest 371 427 21,100 1,400 Climbing New York Center
Fri 12:08:40 PM 40.4069 -74.8103 235° Southwest 376 433 22,400 1,210 Climbing New York Center
Fri 12:09:40 PM 40.3447 -74.9211 234° Southwest 376 433 23,500 1,050 Climbing New York Center
Fri 12:10:40 PM 40.2783 -75.0314 232° Southwest 376 433 24,500 1,000 Climbing New York Center
Fri 12:11:40 PM 40.2242 -75.1422 237° Southwest 389 448 25,500 1,000 Climbing New York Center
Fri 12:12:40 PM 40.1758 -75.2669 243° Southwest 389 448 26,500 950 Climbing New York Center
Fri 12:13:40 PM 40.1231 -75.3911 241° Southwest 389 448 27,400 1,050 Climbing New York Center
Fri 12:14:40 PM 40.0481 -75.4972 227° Southwest 395 455 28,600 1,250 Climbing New York Center
Fri 12:15:40 PM 39.9750 -75.6006 227° Southwest 400 460 29,900 1,150 Climbing New York Center
Fri 12:16:40 PM 39.9019 -75.7039 227° Southwest 400 460 30,900 1,000 Climbing New York Center
Fri 12:17:40 PM 39.8372 -75.8075 231° Southwest 394 453 31,900 1,000 Climbing New York Center
Fri 12:18:40 PM 39.7719 -75.9136 231° Southwest 389 448 32,900 660 Climbing New York Center
Fri 12:20:51 PM 39.6247 -76.1439 230° Southwest 379 436 34,000 349 Climbing Washington Center
Fri 12:21:49 PM 39.5533 -76.2536 230° Southwest 384 442 34,000  Level Washington Center
Fri 12:22:49 PM 39.4842 -76.3606 230° Southwest 392 451 34,000  Level Washington Center
Fri 12:23:51 PM 39.4144 -76.4728 231° Southwest 400 460 34,000  Level Washington Center
Fri 12:24:49 PM 39.3472 -76.5683 228° Southwest 400 460 34,000  Level Washington Center
Fri 12:25:50 PM 39.2794 -76.6747 231° Southwest 400 460 34,000  Level Washington Center
Fri 12:26:50 PM 39.2139 -76.7783 231° Southwest 400 460 34,000  Level Washington Center
Fri 12:27:51 PM 39.1461 -76.8842 230° Southwest 395 455 34,000  Level Washington Center
Fri 12:28:49 PM 39.0886 -76.9956 236° Southwest 395 455 34,000 -50 Level Washington Center
Fri 12:29:50 PM 39.0622 -77.1208 255° West 371 427 33,900 -590 Descending Washington Center
Fri 12:30:51 PM 39.0311 -77.2511 253° West 371 427 32,800 -1,059 Descending Washington Center
Fri 12:31:49 PM 38.9814 -77.3781 243° Southwest 387 445 31,800 -1,000 Descending Washington Center
Fri 12:32:51 PM 38.9067 -77.4883 229° Southwest 407 468 30,800 -900 Descending Washington Center
Fri 12:33:49 PM 38.7992 -77.5761 212° Southwest 407 468 30,000 -403 Descending Washington Center
Fri 12:34:50 PM 38.6997 -77.6478 209° Southwest 418 481 30,000  Level Washington Center
Fri 12:35:51 PM 38.5986 -77.7222 210° Southwest 418 481 30,000  Level Washington Center
Fri 12:36:49 PM 38.5053 -77.8044 215° Southwest 418 481 30,000  Level Washington Center
Fri 12:37:49 PM 38.4200 -77.9053 223° Southwest 418 481 30,000  Level Washington Center
Fri 12:38:49 PM 38.3367 -78.0031 223° Southwest 418 481 30,000  Level Washington Center
Fri 12:39:50 PM 38.2533 -78.0983 222° Southwest 413 475 30,000  Level Washington Center
Fri 12:40:50 PM 38.1678 -78.1983 223° Southwest 413 475 30,000 -50 Level Washington Center
Fri 12:41:51 PM 38.0844 -78.2983 223° Southwest 413 475 29,900 -454 Descending Washington Center
Fri 12:42:49 PM 38.0117 -78.3803 222° Southwest 413 475 29,100 -958 Descending Washington Center
Fri 12:43:50 PM 37.9192 -78.4900 223° Southwest 400 460 28,000 -545 Descending Washington Center
Fri 12:44:50 PM 37.8378 -78.5842 222° Southwest 400 460 28,000  Level Washington Center
Fri 12:45:51 PM 37.7539 -78.6781 222° Southwest 405 466 28,000 -303 Level Washington Center
Fri 12:46:49 PM 37.6722 -78.7717 222° Southwest 405 466 27,400 -958 Descending Washington Center
Fri 12:47:50 PM 37.5969 -78.8550 221° Southwest 400 460 26,100 295 Descending Washington Center
Fri 12:48:51 PM 37.5131 -78.9483 221° Southwest 400 460 28,000 -1,475 Climbing Washington Center
Fri 12:49:48 PM 37.4269 -79.0467 222° Southwest 406 467 23,200 -3,051 Descending Washington Center
Fri 12:50:49 PM 37.3428 -79.1369 220° Southwest 406 467 22,000 -585 Descending Washington Center
Fri 12:51:51 PM 37.2631 -79.2269 222° Southwest 406 467 22,000  Level Washington Center
Fri 12:52:51 PM 37.1911 -79.3281 228° Southwest 406 467 22,000  Level Washington Center
Fri 12:53:49 PM 37.1144 -79.4439 230° Southwest 401 461 22,000 -303 Level Washington Center
Fri 12:54:50 PM 37.0464 -79.5472 230° Southwest 395 455 21,400 -1,279 Descending Washington Center
Fri 12:55:51 PM 36.9739 -79.6503 229° Southwest 395 455 19,400 -1,967 Descending Washington Center
Fri 12:57:00 PM 36.9021 -79.7536 229° Southwest  Level FlightAware Approximate
Fri 01:04:00 PM 36.3334 -79.9833 180° South  Level FlightAware Approximate
Fri 01:05:00 PM 36.2383 -79.9833 180° South  Level FlightAware Approximate
Fri 01:06:00 PM 36.1437 -79.9754 171° South  Level FlightAware Approximate
Fri 01:07:00 PM 36.1013 -79.9411 180° South  Level Estimated
Fri 01:08:00 PM 36.1000 -79.9333 28° Northeast  Level FlightAware Approximate
Fri 01:09:00 PM 36.1013 -79.9411 28° Northeast  Level Estimated
Fri 01:10:00 PM 36.1000 -79.9333 28° Northeast  Level FlightAware Approximate
Fri 01:11:00 PM 36.1013 -79.9411 28° Northeast  Level Estimated
Fri 01:12:00 PM 36.1000 -79.9333 28° Northeast  Level FlightAware Approximate

Login

Don't have an account? Register now (free) for customized features, flight alerts, and more!